EDT,Max TemperatureF,Mean TemperatureF,Min TemperatureF,Max Dew PointF,MeanDew PointF,Min DewpointF,Max Humidity, Mean Humidity, Min Humidity, Max Sea Level PressureIn, Mean Sea Level PressureIn, Min Sea Level PressureIn, Max VisibilityMiles, Mean VisibilityMiles, Min VisibilityMiles, Max Wind SpeedMPH, Mean Wind SpeedMPH, Max Gust SpeedMPH,PrecipitationIn, CloudCover, Events, WindDirDegrees
2013-9-1,93,85,77,73,71,66,79,67,49,29.89,29.85,29.79,10,10,2,21,10,48,0.15,2,Rain,218
2013-9-2,91,83,75,73,70,68,79,67,50,29.85,29.81,29.77,10,10,10,14,9,,0.00,4,,234
2013-9-3,91,83,73,72,70,65,79,68,48,29.94,29.84,29.78,10,10,8,7,4,,0.00,1,,258
2013-9-4,86,78,68,67,61,56,81,61,38,30.09,30.04,29.94,10,10,8,8,4,,0.00,2,,319
2013-9-5,90,77,64,67,63,60,90,74,38,30.08,30.05,30.01,10,6,0,8,1,,0.00,0,Fog,317
2013-9-6,82,73,63,63,58,54,75,55,40,30.19,30.14,30.09,10,10,10,15,8,21,0.00,3,,66
2013-9-7,82,71,60,61,56,52,81,60,39,30.14,30.07,29.98,10,10,10,7,2,,0.00,1,,216
2013-9-8,90,79,68,66,61,56,81,59,38,29.99,29.94,29.89,10,10,7,9,6,,0.00,0,,241
2013-9-9,84,76,69,68,66,64,84,68,58,30.17,30.13,30.02,10,10,6,13,6,,0.00,4,,72
2013-9-10,91,78,66,69,66,63,88,71,47,30.23,30.18,30.14,10,6,1,13,2,,0.00,0,,210
2013-9-11,93,84,75,69,67,64,71,58,41,30.19,30.14,30.07,10,10,10,12,8,,0.00,0,,211
2013-9-12,93,84,75,69,67,62,82,59,41,30.06,29.91,29.78,10,10,8,14,9,18,0.09,1,,210
2013-9-13,86,79,69,70,63,52,83,63,36,29.89,29.76,29.70,10,9,2,13,5,18,0.00,3,,335
2013-9-14,77,68,57,54,50,46,78,54,36,30.16,30.04,29.89,10,10,10,13,7,20,0.00,2,,351
2013-9-15,80,66,53,57,51,46,81,57,32,30.25,30.19,30.14,10,10,7,9,2,,0.00,0,,200
2013-9-16,86,73,64,67,61,57,79,70,54,30.19,30.12,30.06,10,10,10,14,7,,0.00,5,,267
2013-9-17,73,67,59,57,52,47,81,62,46,30.37,30.31,30.20,10,10,10,15,9,23,0.00,3,,24
2013-9-18,75,64,54,54,50,46,81,64,36,30.32,30.26,30.20,10,10,10,10,2,,0.00,2,,46
2013-9-19,78,64,52,56,51,47,84,63,36,30.21,30.16,30.11,10,10,2,10,2,,0.00,1,,96
2013-9-20,81,68,57,60,56,54,90,68,45,30.11,30.06,30.00,10,10,10,9,2,,0.00,4,,101
2013-9-21,86,72,57,69,62,53,94,75,45,30.00,29.86,29.75,10,8,1,17,5,22,0.46,4,Rain,208
2013-9-22,79,70,61,67,62,53,88,75,48,29.89,29.79,29.73,10,8,2,10,6,17,0.38,6,Rain,349
2013-9-23,73,62,51,55,50,47,89,68,44,30.09,30.02,29.91,10,10,8,12,6,17,0.00,2,,3
2013-9-24,75,62,48,55,50,45,87,68,42,30.10,30.04,29.97,10,10,4,10,2,,0.00,0,Rain,351
2013-9-25,79,64,50,58,51,46,94,80,38,29.97,29.95,29.88,10,5,0,8,0,,0.00,0,Fog-Rain,113
2013-9-26,79,70,62,60,58,56,84,68,50,30.05,29.96,29.89,10,10,10,14,4,,0.00,2,,50
2013-9-27,77,68,60,58,55,52,86,63,43,30.20,30.14,30.05,10,10,10,16,7,21,0.00,2,,57
2013-9-28,73,66,59,59,56,51,83,69,57,30.25,30.21,30.18,10,10,10,15,8,24,0.00,6,,40
2013-9-29,75,67,55,63,58,51,88,74,55,30.17,30.10,30.05,10,10,10,14,7,,0.00,6,,34
2013-9-30,78,64,51,57,52,48,94,72,40,30.09,30.05,30.01,10,9,2,9,2,,0.00,0,,9